createdAt,value
2018-03-27T00:01:13.123Z,4.57
2018-03-27T00:03:41.432Z,4.53
2018-03-27T00:06:09.787Z,4.46
2018-03-27T00:08:38.124Z,4.45
2018-03-27T00:11:06.433Z,4.51
2018-03-27T00:13:35.055Z,4.51
2018-03-27T00:16:03.431Z,4.42
2018-03-27T00:18:32.528Z,4.30
2018-03-27T00:21:01.769Z,4.18
2018-03-27T00:23:30.437Z,4.22
2018-03-27T00:25:59.503Z,4.20
2018-03-27T00:28:45.528Z,4.21
2018-03-27T00:31:31.455Z,4.08
2018-03-27T00:34:17.365Z,3.78
2018-03-27T00:37:03.259Z,3.88
2018-03-27T00:39:49.337Z,3.94
2018-03-27T00:45:33.181Z,3.71
2018-03-27T00:48:01.566Z,3.56
2018-03-27T00:50:29.877Z,3.60
2018-03-27T00:52:58.218Z,3.75
2018-03-27T00:55:26.570Z,3.78
2018-03-27T00:57:54.893Z,3.75
2018-03-27T01:00:23.620Z,3.80
2018-03-27T01:02:51.937Z,3.85
2018-03-27T01:05:20.231Z,3.89
2018-03-27T01:07:48.728Z,3.91
2018-03-27T01:10:17.049Z,4.01
2018-03-27T01:12:46.139Z,4.01
2018-03-27T01:15:15.487Z,4.02
2018-03-27T01:17:43.838Z,4.08
2018-03-27T01:20:12.180Z,4.04
2018-03-27T01:22:40.591Z,3.84
2018-03-27T01:25:09.022Z,3.79
2018-03-27T01:27:37.414Z,3.90
2018-03-27T01:30:05.793Z,4.02
2018-03-27T01:32:34.905Z,3.98
2018-03-27T01:35:04.001Z,4.19
2018-03-27T01:37:32.380Z,4.41
2018-03-27T01:40:00.725Z,4.40
2018-03-27T01:42:29.075Z,4.29
2018-03-27T01:44:57.820Z,4.35
2018-03-27T01:47:26.196Z,4.35
2018-03-27T01:49:55.638Z,4.21
2018-03-27T01:52:24.018Z,4.15
2018-03-27T01:54:52.351Z,4.28
2018-03-27T01:57:21.451Z,4.44
2018-03-27T01:59:49.797Z,4.29
2018-03-27T02:02:18.136Z,4.15
2018-03-27T02:04:46.460Z,4.31
2018-03-27T02:07:14.996Z,4.40
2018-03-27T02:09:43.305Z,4.11
2018-03-27T02:12:18.000Z,4.21
2018-03-27T02:14:51.892Z,4.35
2018-03-27T02:17:25.716Z,4.19
2018-03-27T02:19:59.515Z,4.34
2018-03-27T02:22:28.178Z,4.41
2018-03-27T02:24:56.519Z,4.46
2018-03-27T02:27:24.842Z,4.52
2018-03-27T02:29:53.985Z,4.65
2018-03-27T02:32:22.433Z,4.70
2018-03-27T02:34:50.798Z,4.73
2018-03-27T02:37:19.191Z,4.69
2018-03-27T02:39:47.545Z,4.80
2018-03-27T02:42:15.943Z,4.79
2018-03-27T02:44:45.142Z,4.82
2018-03-27T02:47:14.561Z,4.82
2018-03-27T02:49:42.938Z,4.80
2018-03-27T02:52:11.313Z,4.71
2018-03-27T02:54:39.696Z,4.61
2018-03-27T02:57:08.015Z,4.59
2018-03-27T02:59:36.401Z,4.56
2018-03-27T03:02:04.769Z,4.70
2018-03-27T03:04:33.176Z,4.62
2018-03-27T03:07:01.670Z,4.62
2018-03-27T03:09:30.782Z,4.35
2018-03-27T03:11:59.190Z,4.27
2018-03-27T03:14:27.562Z,4.29
2018-03-27T03:16:55.921Z,4.33
2018-03-27T03:19:25.003Z,4.40
2018-03-27T03:21:54.159Z,4.38
2018-03-27T03:24:22.499Z,4.25
2018-03-27T03:26:50.813Z,4.36
2018-03-27T03:29:19.673Z,4.53
2018-03-27T03:31:48.011Z,4.51
2018-03-27T03:34:16.365Z,4.18
2018-03-27T03:36:44.736Z,4.33
2018-03-27T03:39:13.031Z,4.46
2018-03-27T03:41:41.358Z,4.29
2018-03-27T03:44:09.741Z,4.42
2018-03-27T03:46:38.125Z,4.34
2018-03-27T03:49:06.457Z,4.54
2018-03-27T03:51:35.209Z,4.75
2018-03-27T03:54:03.563Z,4.67
2018-03-27T03:56:31.898Z,4.42
2018-03-27T03:59:00.314Z,4.25
2018-03-27T04:01:28.656Z,4.17
2018-03-27T04:03:57.000Z,4.30
2018-03-27T04:06:25.418Z,4.21
2018-03-27T04:08:53.728Z,4.24
2018-03-27T04:11:22.124Z,4.32
2018-03-27T04:13:50.601Z,4.43
2018-03-27T04:16:18.936Z,4.50
2018-03-27T04:18:47.279Z,4.50
2018-03-27T04:21:15.611Z,4.52
2018-03-27T04:23:44.694Z,4.53
2018-03-27T04:26:13.051Z,4.47
2018-03-27T04:28:41.413Z,4.44
2018-03-27T04:31:09.967Z,4.57
2018-03-27T04:33:39.062Z,4.86
2018-03-27T04:36:08.244Z,4.99
2018-03-27T04:38:36.594Z,4.88
2018-03-27T04:41:04.912Z,4.80
2018-03-27T04:43:34.044Z,4.87
2018-03-27T04:46:02.372Z,4.83
2018-03-27T04:48:30.665Z,4.84
2018-03-27T04:50:59.820Z,4.47
2018-03-27T04:53:28.148Z,4.85
2018-03-27T04:55:57.287Z,5.06
2018-03-27T04:58:25.770Z,5.10
2018-03-27T05:00:54.181Z,5.18
2018-03-27T05:03:23.321Z,5.30
2018-03-27T05:05:51.971Z,5.43
2018-03-27T05:08:21.063Z,5.28
2018-03-27T05:10:49.419Z,5.44
2018-03-27T05:13:17.908Z,5.40
2018-03-27T05:15:46.230Z,5.47
2018-03-27T05:18:14.620Z,5.44
2018-03-27T05:20:43.165Z,5.39
2018-03-27T05:23:11.632Z,5.42
2018-03-27T05:25:40.102Z,5.42
2018-03-27T05:28:08.592Z,5.10
2018-03-27T05:30:36.951Z,4.88
2018-03-27T05:33:05.343Z,4.92
2018-03-27T05:35:33.822Z,4.99
2018-03-27T05:38:02.154Z,4.92
2018-03-27T05:40:30.492Z,5.06
2018-03-27T05:42:59.306Z,5.06
2018-03-27T05:45:27.645Z,5.03
2018-03-27T05:47:56.103Z,5.24
2018-03-27T05:50:24.452Z,5.18
2018-03-27T05:52:53.575Z,5.30
2018-03-27T05:55:21.919Z,5.28
2018-03-27T05:57:50.282Z,5.44
2018-03-27T06:00:18.578Z,5.67
2018-03-27T06:02:47.681Z,5.58
2018-03-27T06:05:16.453Z,5.55
2018-03-27T06:07:44.795Z,5.45
2018-03-27T06:10:13.929Z,5.80
2018-03-27T06:12:43.054Z,5.88
2018-03-27T06:15:11.357Z,6.00
2018-03-27T06:17:39.690Z,6.03
2018-03-27T06:20:08.078Z,5.72
2018-03-27T06:22:37.148Z,5.52
2018-03-27T06:25:05.496Z,5.80
2018-03-27T06:27:34.953Z,5.85
2018-03-27T06:30:03.339Z,5.82
2018-03-27T06:32:31.706Z,6.17
2018-03-27T06:35:00.848Z,6.57
2018-03-27T06:37:29.202Z,6.95
2018-03-27T06:39:57.617Z,7.17
2018-03-27T06:42:26.018Z,7.13
2018-03-27T06:44:54.365Z,7.37
2018-03-27T06:47:22.681Z,7.13
2018-03-27T06:49:51.154Z,7.39
2018-03-27T06:52:19.496Z,7.75
2018-03-27T06:54:47.872Z,7.81
2018-03-27T06:57:16.205Z,7.34
2018-03-27T06:59:44.561Z,7.21
2018-03-27T07:02:12.877Z,7.39
2018-03-27T07:04:42.101Z,7.53
2018-03-27T07:07:10.419Z,7.55
2018-03-27T07:09:38.790Z,7.89
2018-03-27T07:12:07.367Z,8.03
2018-03-27T07:14:35.776Z,8.40
2018-03-27T07:17:04.201Z,8.42
2018-03-27T07:19:32.579Z,8.63
2018-03-27T07:22:00.936Z,8.73
2018-03-27T07:24:29.266Z,8.81
2018-03-27T07:26:57.754Z,8.52
2018-03-27T07:29:26.188Z,8.77
2018-03-27T07:31:54.573Z,8.78
2018-03-27T07:34:23.220Z,8.92
2018-03-27T07:36:51.587Z,8.68
2018-03-27T07:39:20.035Z,8.84
2018-03-27T07:41:48.393Z,8.65
2018-03-27T07:44:16.738Z,8.45
2018-03-27T07:46:45.104Z,8.46
2018-03-27T07:49:13.503Z,8.53
2018-03-27T07:51:41.876Z,8.37
2018-03-27T07:54:10.229Z,8.12
2018-03-27T07:56:38.670Z,8.35
2018-03-27T07:59:07.795Z,8.15
2018-03-27T08:01:36.172Z,8.38
2018-03-27T08:04:04.518Z,8.64
2018-03-27T08:06:32.848Z,8.68
2018-03-27T08:09:01.198Z,8.60
2018-03-27T08:11:29.552Z,8.17
2018-03-27T08:13:58.653Z,8.53
2018-03-27T08:16:26.985Z,8.68
2018-03-27T08:18:55.713Z,8.47
2018-03-27T08:21:24.043Z,8.55
2018-03-27T08:23:53.159Z,8.47
2018-03-27T08:26:22.273Z,8.73
2018-03-27T08:28:51.369Z,8.75
2018-03-27T08:31:19.723Z,9.02
2018-03-27T08:33:48.125Z,8.79
2018-03-27T08:36:17.247Z,9.25
2018-03-27T08:38:45.636Z,9.70
2018-03-27T08:41:14.733Z,9.98
2018-03-27T08:43:43.074Z,10.23
2018-03-27T08:46:11.416Z,10.17
2018-03-27T08:48:39.817Z,10.38
2018-03-27T08:51:08.173Z,9.90
2018-03-27T08:53:36.548Z,10.04
2018-03-27T08:56:04.951Z,10.15
2018-03-27T08:58:33.322Z,10.55
2018-03-27T09:01:01.655Z,10.72
2018-03-27T09:03:30.448Z,10.69
2018-03-27T09:05:58.792Z,10.48
2018-03-27T09:08:27.136Z,10.51
2018-03-27T09:10:55.513Z,10.98
2018-03-27T09:13:24.636Z,11.63
2018-03-27T09:15:52.983Z,11.66
2018-03-27T09:18:21.357Z,11.36
2018-03-27T09:20:49.744Z,11.42
2018-03-27T09:23:18.140Z,11.71
2018-03-27T09:25:46.530Z,12.15
2018-03-27T09:28:14.877Z,12.26
2018-03-27T09:30:43.240Z,12.25
2018-03-27T09:33:11.621Z,11.29
2018-03-27T09:35:40.044Z,12.07
2018-03-27T09:38:08.570Z,12.79
2018-03-27T09:40:37.002Z,13.50
2018-03-27T09:43:05.313Z,13.91
2018-03-27T09:45:33.682Z,13.97
2018-03-27T09:48:02.500Z,13.65
2018-03-27T09:50:30.894Z,13.12
2018-03-27T09:52:59.235Z,14.02
2018-03-27T09:55:27.591Z,14.76
2018-03-27T09:57:55.952Z,14.14
2018-03-27T10:00:29.781Z,14.15
2018-03-27T10:02:58.131Z,15.89
2018-03-27T10:05:26.491Z,16.58
2018-03-27T10:07:55.819Z,17.51
2018-03-27T10:10:24.194Z,17.04
2018-03-27T10:12:52.586Z,16.74
2018-03-27T10:15:21.004Z,16.78
2018-03-27T10:17:50.113Z,16.54
2018-03-27T10:20:19.186Z,17.10
2018-03-27T10:22:47.568Z,17.80
2018-03-27T10:25:15.977Z,18.76
2018-03-27T10:27:44.409Z,18.73
2018-03-27T10:30:13.053Z,19.32
2018-03-27T10:32:41.376Z,19.34
2018-03-27T10:35:09.712Z,20.67
2018-03-27T10:37:38.139Z,20.06
2018-03-27T10:40:06.515Z,18.03
2018-03-27T10:42:34.827Z,18.71
2018-03-27T10:45:03.972Z,18.37
2018-03-27T10:47:32.300Z,18.59
2018-03-27T10:50:01.381Z,18.37
2018-03-27T10:52:30.137Z,18.19
2018-03-27T10:54:58.476Z,19.16
2018-03-27T10:57:27.574Z,22.13
2018-03-27T10:59:55.974Z,20.88
2018-03-27T11:02:24.314Z,21.45
2018-03-27T11:04:52.630Z,20.66
2018-03-27T11:07:21.003Z,18.43
2018-03-27T11:09:49.400Z,20.06
2018-03-27T11:12:17.736Z,21.32
2018-03-27T11:14:47.586Z,23.98
2018-03-27T11:17:15.972Z,24.31
2018-03-27T11:19:44.309Z,22.54
2018-03-27T11:22:12.693Z,22.99
2018-03-27T11:24:41.773Z,22.01
2018-03-27T11:27:10.912Z,22.84
2018-03-27T11:29:39.300Z,22.08
2018-03-27T11:32:07.693Z,21.93
2018-03-27T11:34:36.072Z,23.60
2018-03-27T11:37:04.493Z,24.64
2018-03-27T11:39:32.820Z,26.85
2018-03-27T11:42:01.155Z,24.36
2018-03-27T11:44:30.298Z,21.92
2018-03-27T11:46:58.637Z,20.37
2018-03-27T11:49:27.749Z,18.62
2018-03-27T11:51:56.196Z,17.25
2018-03-27T11:54:24.494Z,16.54
2018-03-27T11:56:52.795Z,15.96
2018-03-27T11:59:21.451Z,15.50
2018-03-27T12:01:49.811Z,15.18
2018-03-27T12:04:18.193Z,14.67
2018-03-27T12:06:46.548Z,14.53
2018-03-27T12:09:14.861Z,14.25
2018-03-27T12:11:43.990Z,14.14
2018-03-27T12:14:12.334Z,13.97
2018-03-27T12:16:41.426Z,13.40
2018-03-27T12:19:10.525Z,13.32
2018-03-27T12:21:38.980Z,13.41
2018-03-27T12:24:07.328Z,13.56
2018-03-27T12:26:35.665Z,13.78
2018-03-27T12:29:04.769Z,13.70
2018-03-27T12:31:33.848Z,14.31
2018-03-27T12:34:02.207Z,15.29
2018-03-27T12:36:30.582Z,15.78
2018-03-27T12:38:58.945Z,15.07
2018-03-27T12:41:27.272Z,15.03
2018-03-27T12:43:56.176Z,15.51
2018-03-27T12:46:25.293Z,15.61
2018-03-27T12:48:53.675Z,15.52
2018-03-27T12:51:22.032Z,15.34
2018-03-27T12:53:51.175Z,15.42
2018-03-27T12:56:19.545Z,15.12
2018-03-27T12:58:47.967Z,15.21
2018-03-27T13:01:17.088Z,15.09
2018-03-27T13:03:46.458Z,15.09
2018-03-27T13:06:15.101Z,14.84
2018-03-27T13:08:43.434Z,13.89
2018-03-27T13:11:11.752Z,14.47
2018-03-27T13:13:40.123Z,14.76
2018-03-27T13:16:08.498Z,14.43
2018-03-27T13:18:36.884Z,14.77
2018-03-27T13:21:05.303Z,14.45
2018-03-27T13:23:33.658Z,14.34
2018-03-27T13:26:02.012Z,13.92
2018-03-27T13:28:30.657Z,14.27
2018-03-27T13:30:59.022Z,14.68
2018-03-27T13:33:27.363Z,14.75
2018-03-27T13:35:55.776Z,14.11
2018-03-27T13:38:24.117Z,13.79
2018-03-27T13:40:52.447Z,13.66
2018-03-27T13:43:20.829Z,13.34
2018-03-27T13:45:49.949Z,13.75
2018-03-27T13:48:18.309Z,13.52
2018-03-27T13:50:47.040Z,13.45
2018-03-27T13:53:15.414Z,13.21
2018-03-27T13:55:43.753Z,13.24
2018-03-27T13:58:12.146Z,13.55
2018-03-27T14:00:41.267Z,13.39
2018-03-27T14:03:10.522Z,13.62
2018-03-27T14:05:38.876Z,13.41
2018-03-27T14:08:07.292Z,13.63
2018-03-27T14:10:35.648Z,13.53
2018-03-27T14:13:04.219Z,13.59
2018-03-27T14:15:32.568Z,13.40
2018-03-27T14:18:00.913Z,13.40
2018-03-27T14:20:29.308Z,13.40
2018-03-27T14:22:58.404Z,13.93
2018-03-27T14:25:27.579Z,14.21
2018-03-27T14:27:55.985Z,14.23
2018-03-27T14:30:25.100Z,13.66
2018-03-27T14:32:53.465Z,13.59
2018-03-27T14:35:21.916Z,13.86
2018-03-27T14:37:50.261Z,13.60
2018-03-27T14:40:18.598Z,13.45
2018-03-27T14:42:47.935Z,13.20
2018-03-27T14:45:16.305Z,12.88
2018-03-27T14:47:44.641Z,13.06
2018-03-27T14:50:13.026Z,13.02
2018-03-27T14:52:41.442Z,13.08
2018-03-27T14:55:09.836Z,13.00
2018-03-27T14:57:38.337Z,13.48
2018-03-27T15:00:06.721Z,13.65
2018-03-27T15:02:35.160Z,13.80
2018-03-27T15:05:03.597Z,13.47
2018-03-27T15:07:31.961Z,13.50
2018-03-27T15:10:00.326Z,13.42
2018-03-27T15:12:28.712Z,13.36
2018-03-27T15:14:57.051Z,13.81
2018-03-27T15:17:25.429Z,13.97
2018-03-27T15:19:54.048Z,13.72
2018-03-27T15:22:23.140Z,13.57
2018-03-27T15:24:51.528Z,13.14
2018-03-27T15:27:19.903Z,12.96
2018-03-27T15:29:48.247Z,13.06
2018-03-27T15:32:16.598Z,12.88
2018-03-27T15:34:45.052Z,13.19
2018-03-27T15:37:13.479Z,13.35
2018-03-27T15:39:41.941Z,12.86
2018-03-27T15:42:10.608Z,12.85
2018-03-27T15:44:38.997Z,13.03
2018-03-27T15:47:07.329Z,13.13
2018-03-27T15:49:35.780Z,12.86
2018-03-27T15:52:04.254Z,12.94
2018-03-27T15:54:32.600Z,13.06
2018-03-27T15:57:00.981Z,13.29
2018-03-27T15:59:29.438Z,13.48
2018-03-27T16:01:57.852Z,13.61
2018-03-27T16:04:26.337Z,12.98
2018-03-27T16:06:54.720Z,13.13
2018-03-27T16:09:23.154Z,12.94
2018-03-27T16:11:51.520Z,12.92
2018-03-27T16:14:19.883Z,12.97
2018-03-27T16:16:49.709Z,13.02
2018-03-27T16:19:18.132Z,12.65
2018-03-27T16:21:46.470Z,12.55
2018-03-27T16:24:14.846Z,12.53
2018-03-27T16:26:43.318Z,12.36
2018-03-27T16:29:12.440Z,12.34
2018-03-27T16:31:40.873Z,12.55
2018-03-27T16:34:09.326Z,12.51
2018-03-27T16:36:37.648Z,12.50
2018-03-27T16:39:05.990Z,12.48
2018-03-27T16:41:34.366Z,12.26
2018-03-27T16:44:02.723Z,11.98
2018-03-27T16:46:31.056Z,12.08
2018-03-27T16:48:59.665Z,12.05
2018-03-27T16:51:29.209Z,12.02
2018-03-27T16:53:57.559Z,12.16
2018-03-27T16:56:25.902Z,12.27
2018-03-27T16:58:54.298Z,12.14
2018-03-27T17:01:22.667Z,11.97
2018-03-27T17:03:51.044Z,12.00
2018-03-27T17:06:19.393Z,11.93
2018-03-27T17:08:47.728Z,11.97
2018-03-27T17:11:17.061Z,11.89
2018-03-27T17:13:45.410Z,11.58
2018-03-27T17:16:14.651Z,11.64
2018-03-27T17:18:43.030Z,11.60
2018-03-27T17:21:11.361Z,11.53
2018-03-27T17:23:39.681Z,11.55
2018-03-27T17:26:08.014Z,11.50
2018-03-27T17:28:36.334Z,11.03
2018-03-27T17:31:04.707Z,10.99
2018-03-27T17:33:33.552Z,11.07
2018-03-27T17:36:02.667Z,11.14
2018-03-27T17:38:31.788Z,11.14
2018-03-27T17:41:00.205Z,11.11
2018-03-27T17:43:28.551Z,10.74
2018-03-27T17:45:56.883Z,10.77
2018-03-27T17:48:25.254Z,10.99
2018-03-27T17:50:53.605Z,10.95
2018-03-27T17:53:22.520Z,11.16
2018-03-27T17:55:51.034Z,11.04
2018-03-27T17:58:19.405Z,11.14
2018-03-27T18:00:48.487Z,11.22
2018-03-27T18:03:18.090Z,11.22
2018-03-27T18:05:46.445Z,11.24
2018-03-27T18:08:15.586Z,11.12
2018-03-27T18:10:44.733Z,11.14
2018-03-27T18:13:13.095Z,11.16
2018-03-27T18:15:41.437Z,10.85
2018-03-27T18:18:10.664Z,10.87
2018-03-27T18:20:39.018Z,10.62
2018-03-27T18:23:08.138Z,10.53
2018-03-27T18:25:36.545Z,10.57
2018-03-27T18:28:04.893Z,10.64
2018-03-27T18:30:33.236Z,10.58
2018-03-27T18:33:01.574Z,10.59
2018-03-27T18:35:30.948Z,10.46
2018-03-27T18:38:00.548Z,10.03
2018-03-27T18:40:28.954Z,9.90
2018-03-27T18:42:57.273Z,10.06
2018-03-27T18:45:25.638Z,10.11
2018-03-27T18:47:54.069Z,10.10
2018-03-27T18:50:22.447Z,10.00
2018-03-27T18:52:50.838Z,9.93
2018-03-27T18:55:19.798Z,10.11
2018-03-27T18:57:48.135Z,9.97
2018-03-27T19:00:16.492Z,9.98
2018-03-27T19:02:45.159Z,9.77
2018-03-27T19:05:13.514Z,9.70
2018-03-27T19:07:41.864Z,9.71
2018-03-27T19:12:44.599Z,9.76
2018-03-27T19:15:12.957Z,9.84
2018-03-27T19:17:41.314Z,9.83
2018-03-27T19:20:09.646Z,9.58
2018-03-27T19:22:38.263Z,9.66
2018-03-27T19:25:06.657Z,9.41
2018-03-27T19:27:35.017Z,9.58
2018-03-27T19:30:03.380Z,9.52
2018-03-27T19:32:31.766Z,9.52
2018-03-27T19:35:00.091Z,9.42
2018-03-27T19:37:28.429Z,9.40
2018-03-27T19:39:56.792Z,9.36
2018-03-27T19:42:25.164Z,9.38
2018-03-27T19:44:53.732Z,9.42
2018-03-27T19:47:22.822Z,9.52
2018-03-27T19:49:51.187Z,9.64
2018-03-27T19:52:19.588Z,9.68
2018-03-27T19:54:47.921Z,9.76
2018-03-27T19:57:16.269Z,9.62
2018-03-27T19:59:44.796Z,9.48
2018-03-27T20:02:13.938Z,9.37
2018-03-27T20:04:42.345Z,9.29
2018-03-27T20:07:11.090Z,9.29
2018-03-27T20:09:39.456Z,9.29
2018-03-27T20:12:07.789Z,9.49
2018-03-27T20:14:36.184Z,9.56
2018-03-27T20:17:04.613Z,9.50
2018-03-27T20:19:32.972Z,9.39
2018-03-27T20:22:01.393Z,9.50
2018-03-27T20:24:30.574Z,9.16
2018-03-27T20:26:58.942Z,9.08
2018-03-27T20:29:27.493Z,9.03
2018-03-27T20:31:55.887Z,9.24
2018-03-27T20:34:24.370Z,9.19
2018-03-27T20:36:52.760Z,9.13
2018-03-27T20:39:21.121Z,9.10
2018-03-27T20:41:49.451Z,8.91
2018-03-27T20:44:17.878Z,8.89
2018-03-27T20:46:46.294Z,9.20
2018-03-27T20:49:14.733Z,8.99
2018-03-27T20:51:43.232Z,9.02
2018-03-27T20:54:11.617Z,9.06
2018-03-27T20:56:39.983Z,9.26
2018-03-27T20:59:08.354Z,8.89
2018-03-27T21:01:36.680Z,8.83
2018-03-27T21:04:05.049Z,8.58
2018-03-27T21:06:34.205Z,8.57
2018-03-27T21:09:02.590Z,8.68
2018-03-27T21:11:30.964Z,8.40
2018-03-27T21:13:59.561Z,8.62
2018-03-27T21:16:27.897Z,8.56
2018-03-27T21:18:56.228Z,8.48
2018-03-27T21:21:24.579Z,8.57
2018-03-27T21:23:52.930Z,8.60
2018-03-27T21:26:21.998Z,8.77
2018-03-27T21:28:51.149Z,8.63
2018-03-27T21:31:19.507Z,8.73
2018-03-27T21:33:47.852Z,8.93
2018-03-27T21:36:16.456Z,8.92
2018-03-27T21:38:45.682Z,8.77
2018-03-27T21:41:14.002Z,8.66
2018-03-27T21:43:42.347Z,8.48
2018-03-27T21:46:10.690Z,8.57
2018-03-27T21:48:39.002Z,8.62
2018-03-27T21:51:07.349Z,8.82
2018-03-27T21:53:36.427Z,8.61
2018-03-27T21:56:05.676Z,8.66
2018-03-27T21:58:34.451Z,8.37
2018-03-27T22:01:02.836Z,8.53
2018-03-27T22:03:40.539Z,8.69
2018-03-27T22:06:08.913Z,8.68
2018-03-27T22:08:37.250Z,8.79
2018-03-27T22:11:05.674Z,8.82
2018-03-27T22:13:34.047Z,8.65
2018-03-27T22:16:02.409Z,8.55
2018-03-27T22:18:31.043Z,8.49
2018-03-27T22:20:59.378Z,8.51
2018-03-27T22:23:27.770Z,8.61
2018-03-27T22:25:56.133Z,8.62
2018-03-27T22:28:25.244Z,8.77
2018-03-27T22:30:53.592Z,8.68
2018-03-27T22:33:22.707Z,8.58
2018-03-27T22:35:51.047Z,8.73
2018-03-27T22:38:19.400Z,8.88
2018-03-27T22:40:47.944Z,8.88
2018-03-27T22:43:16.305Z,8.80
2018-03-27T22:45:45.421Z,8.90
2018-03-27T22:48:13.798Z,8.70
2018-03-27T22:50:42.890Z,8.73
2018-03-27T22:53:11.236Z,8.79
2018-03-27T22:55:39.612Z,8.90
2018-03-27T22:58:07.961Z,8.80
2018-03-27T23:00:36.301Z,8.78
2018-03-27T23:03:05.762Z,8.61
2018-03-27T23:05:34.090Z,8.35
2018-03-27T23:08:02.474Z,8.29
2018-03-27T23:10:30.839Z,8.37
2018-03-27T23:12:59.938Z,8.48
2018-03-27T23:15:29.045Z,8.47
2018-03-27T23:17:57.411Z,8.25
2018-03-27T23:20:25.764Z,8.20
2018-03-27T23:22:54.095Z,8.34
2018-03-27T23:25:23.296Z,8.28
2018-03-27T23:27:51.645Z,8.21
2018-03-27T23:30:19.977Z,8.26
2018-03-27T23:32:48.322Z,8.28
2018-03-27T23:35:16.679Z,8.18
2018-03-27T23:37:45.811Z,8.21
2018-03-27T23:40:14.204Z,8.14
2018-03-27T23:42:42.725Z,8.06
2018-03-27T23:45:11.080Z,8.13
2018-03-27T23:47:39.615Z,8.31
2018-03-27T23:50:07.963Z,8.51
2018-03-27T23:52:37.093Z,8.22
2018-03-27T23:55:05.440Z,8.15
2018-03-27T23:57:33.921Z,8.05
